sensor_id;sensor_type;location;lat;lon;timestamp;pressure;altitude;pressure_sealevel;temperature;humidity
75136;BME280;63707;52.212;9.540;2023-07-16T00:00:57;99413.44;;;19.81;100.00
75136;BME280;63707;52.212;9.540;2023-07-16T00:03:22;99428.69;;;19.73;100.00
75136;BME280;63707;52.212;9.540;2023-07-16T00:05:49;99433.16;;;19.64;100.00
75136;BME280;63707;52.212;9.540;2023-07-16T00:08:15;99424.03;;;19.59;100.00
75136;BME280;63707;52.212;9.540;2023-07-16T00:10:40;99401.38;;;19.52;100.00
75136;BME280;63707;52.212;9.540;2023-07-16T00:13:06;99362.69;;;19.62;100.00
75136;BME280;63707;52.212;9.540;2023-07-16T00:15:31;99351.94;;;19.55;100.00
75136;BME280;63707;52.212;9.540;2023-07-16T00:17:58;99353.31;;;19.53;100.00
75136;BME280;63707;52.212;9.540;2023-07-16T00:20:24;99357.47;;;19.35;100.00
75136;BME280;63707;52.212;9.540;2023-07-16T00:22:49;99364.09;;;19.34;100.00
75136;BME280;63707;52.212;9.540;2023-07-16T00:25:15;99356.38;;;19.36;100.00
75136;BME280;63707;52.212;9.540;2023-07-16T00:27:41;99358.06;;;19.27;100.00
75136;BME280;63707;52.212;9.540;2023-07-16T00:30:07;99321.31;;;19.26;100.00
75136;BME280;63707;52.212;9.540;2023-07-16T00:32:33;99318.59;;;19.16;100.00
75136;BME280;63707;52.212;9.540;2023-07-16T00:35:00;99343.22;;;19.02;100.00
75136;BME280;63707;52.212;9.540;2023-07-16T00:37:26;99398.44;;;19.02;100.00
75136;BME280;63707;52.212;9.540;2023-07-16T00:39:52;99397.84;;;19.15;100.00
75136;BME280;63707;52.212;9.540;2023-07-16T00:42:18;99400.91;;;19.14;100.00
75136;BME280;63707;52.212;9.540;2023-07-16T00:44:43;99396.16;;;19.30;100.00
75136;BME280;63707;52.212;9.540;2023-07-16T00:47:09;99381.78;;;19.48;100.00
75136;BME280;63707;52.212;9.540;2023-07-16T00:49:35;99358.00;;;19.47;100.00
75136;BME280;63707;52.212;9.540;2023-07-16T00:52:02;99387.03;;;19.34;100.00
75136;BME280;63707;52.212;9.540;2023-07-16T00:54:29;99401.69;;;19.25;100.00
75136;BME280;63707;52.212;9.540;2023-07-16T00:56:55;99414.69;;;19.19;100.00
75136;BME280;63707;52.212;9.540;2023-07-16T00:59:21;99406.41;;;19.14;100.00
75136;BME280;63707;52.212;9.540;2023-07-16T01:01:46;99414.97;;;19.17;100.00
75136;BME280;63707;52.212;9.540;2023-07-16T01:04:12;99419.41;;;19.18;100.00
75136;BME280;63707;52.212;9.540;2023-07-16T01:06:39;99415.81;;;19.18;100.00
75136;BME280;63707;52.212;9.540;2023-07-16T01:09:15;99416.91;;;19.17;100.00
75136;BME280;63707;52.212;9.540;2023-07-16T01:11:42;99404.78;;;19.08;100.00
75136;BME280;63707;52.212;9.540;2023-07-16T01:14:08;99388.47;;;19.11;100.00
75136;BME280;63707;52.212;9.540;2023-07-16T01:16:33;99397.34;;;18.98;100.00
75136;BME280;63707;52.212;9.540;2023-07-16T01:18:59;99429.38;;;18.94;100.00
75136;BME280;63707;52.212;9.540;2023-07-16T01:21:28;99440.38;;;18.74;100.00
75136;BME280;63707;52.212;9.540;2023-07-16T01:24:19;99450.59;;;18.83;100.00
75136;BME280;63707;52.212;9.540;2023-07-16T01:27:04;99433.47;;;18.92;100.00
75136;BME280;63707;52.212;9.540;2023-07-16T01:29:41;99439.00;;;18.92;100.00
75136;BME280;63707;52.212;9.540;2023-07-16T01:32:11;99436.25;;;18.81;100.00
75136;BME280;63707;52.212;9.540;2023-07-16T01:34:38;99442.31;;;18.78;100.00
75136;BME280;63707;52.212;9.540;2023-07-16T01:37:05;99433.47;;;18.76;100.00
75136;BME280;63707;52.212;9.540;2023-07-16T01:39:31;99413.34;;;18.66;100.00
75136;BME280;63707;52.212;9.540;2023-07-16T01:42:00;99419.41;;;18.63;100.00
75136;BME280;63707;52.212;9.540;2023-07-16T01:44:25;99425.72;;;18.48;100.00
75136;BME280;63707;52.212;9.540;2023-07-16T01:47:04;99418.25;;;18.48;100.00
75136;BME280;63707;52.212;9.540;2023-07-16T01:49:31;99418.00;;;18.55;100.00
75136;BME280;63707;52.212;9.540;2023-07-16T01:51:56;99419.63;;;18.46;100.00
75136;BME280;63707;52.212;9.540;2023-07-16T01:54:22;99424.06;;;18.57;100.00
75136;BME280;63707;52.212;9.540;2023-07-16T01:56:47;99404.50;;;18.64;100.00
75136;BME280;63707;52.212;9.540;2023-07-16T01:59:13;99403.94;;;18.67;100.00
75136;BME280;63707;52.212;9.540;2023-07-16T02:01:38;99405.06;;;18.66;100.00
75136;BME280;63707;52.212;9.540;2023-07-16T02:04:05;99407.00;;;18.70;100.00
75136;BME280;63707;52.212;9.540;2023-07-16T02:06:30;99406.16;;;18.70;100.00
75136;BME280;63707;52.212;9.540;2023-07-16T02:08:56;99411.97;;;18.68;100.00
75136;BME280;63707;52.212;9.540;2023-07-16T02:11:21;99414.72;;;18.73;100.00
75136;BME280;63707;52.212;9.540;2023-07-16T02:13:47;99418.31;;;18.69;100.00
75136;BME280;63707;52.212;9.540;2023-07-16T02:16:12;99432.38;;;18.67;100.00
75136;BME280;63707;52.212;9.540;2023-07-16T02:18:38;99429.31;;;18.59;100.00
75136;BME280;63707;52.212;9.540;2023-07-16T02:21:05;99434.53;;;18.50;100.00
75136;BME280;63707;52.212;9.540;2023-07-16T02:23:30;99440.88;;;18.45;100.00
75136;BME280;63707;52.212;9.540;2023-07-16T02:25:56;99432.00;;;18.38;100.00
75136;BME280;63707;52.212;9.540;2023-07-16T02:28:21;99418.50;;;18.37;100.00
75136;BME280;63707;52.212;9.540;2023-07-16T02:30:48;99417.94;;;18.40;100.00
75136;BME280;63707;52.212;9.540;2023-07-16T02:33:14;99423.72;;;18.33;100.00
75136;BME280;63707;52.212;9.540;2023-07-16T02:35:39;99420.13;;;18.28;100.00
75136;BME280;63707;52.212;9.540;2023-07-16T02:38:06;99424.81;;;18.27;100.00
75136;BME280;63707;52.212;9.540;2023-07-16T02:40:31;99436.66;;;18.22;100.00
75136;BME280;63707;52.212;9.540;2023-07-16T02:42:57;99435.28;;;18.20;100.00
75136;BME280;63707;52.212;9.540;2023-07-16T02:45:22;99438.59;;;18.17;100.00
75136;BME280;63707;52.212;9.540;2023-07-16T02:47:48;99440.25;;;18.18;100.00
75136;BME280;63707;52.212;9.540;2023-07-16T02:50:13;99444.66;;;18.14;100.00
75136;BME280;63707;52.212;9.540;2023-07-16T02:52:39;99441.28;;;18.02;100.00
75136;BME280;63707;52.212;9.540;2023-07-16T02:55:07;99436.88;;;18.01;100.00
75136;BME280;63707;52.212;9.540;2023-07-16T02:57:32;99442.88;;;17.87;100.00
75136;BME280;63707;52.212;9.540;2023-07-16T02:59:58;99450.03;;;17.83;100.00
75136;BME280;63707;52.212;9.540;2023-07-16T03:02:23;99451.38;;;17.76;100.00
75136;BME280;63707;52.212;9.540;2023-07-16T03:04:49;99463.41;;;17.65;100.00
75136;BME280;63707;52.212;9.540;2023-07-16T03:07:14;99455.09;;;17.54;100.00
75136;BME280;63707;52.212;9.540;2023-07-16T03:09:40;99460.75;;;17.38;100.00
75136;BME280;63707;52.212;9.540;2023-07-16T03:12:08;99463.75;;;17.36;100.00
75136;BME280;63707;52.212;9.540;2023-07-16T03:14:33;99467.56;;;17.30;100.00
75136;BME280;63707;52.212;9.540;2023-07-16T03:16:59;99474.69;;;17.21;100.00
75136;BME280;63707;52.212;9.540;2023-07-16T03:19:24;99479.63;;;17.19;100.00
75136;BME280;63707;52.212;9.540;2023-07-16T03:21:50;99474.25;;;17.39;100.00
75136;BME280;63707;52.212;9.540;2023-07-16T03:24:15;99471.25;;;17.04;100.00
75136;BME280;63707;52.212;9.540;2023-07-16T03:26:41;99490.09;;;16.90;100.00
75136;BME280;63707;52.212;9.540;2023-07-16T03:29:07;99495.72;;;16.73;100.00
75136;BME280;63707;52.212;9.540;2023-07-16T03:31:33;99494.03;;;16.67;100.00
75136;BME280;63707;52.212;9.540;2023-07-16T03:33:58;99497.97;;;16.54;100.00
75136;BME280;63707;52.212;9.540;2023-07-16T03:36:24;99507.91;;;16.82;100.00
75136;BME280;63707;52.212;9.540;2023-07-16T03:38:49;99505.25;;;16.92;100.00
75136;BME280;63707;52.212;9.540;2023-07-16T03:41:15;99513.06;;;16.74;100.00
75136;BME280;63707;52.212;9.540;2023-07-16T03:43:40;99513.84;;;16.69;100.00
75136;BME280;63707;52.212;9.540;2023-07-16T03:46:07;99521.06;;;16.75;100.00
75136;BME280;63707;52.212;9.540;2023-07-16T03:48:33;99519.19;;;16.81;100.00
75136;BME280;63707;52.212;9.540;2023-07-16T03:50:59;99517.53;;;16.80;100.00
75136;BME280;63707;52.212;9.540;2023-07-16T03:53:24;99535.03;;;16.68;100.00
75136;BME280;63707;52.212;9.540;2023-07-16T03:55:50;99542.22;;;16.53;100.00
75136;BME280;63707;52.212;9.540;2023-07-16T03:58:15;99543.41;;;16.57;100.00
75136;BME280;63707;52.212;9.540;2023-07-16T04:00:41;99542.34;;;16.63;100.00
75136;BME280;63707;52.212;9.540;2023-07-16T04:03:08;99548.16;;;16.88;100.00
75136;BME280;63707;52.212;9.540;2023-07-16T04:05:33;99543.94;;;17.08;100.00
75136;BME280;63707;52.212;9.540;2023-07-16T04:07:59;99547.41;;;17.25;100.00
75136;BME280;63707;52.212;9.540;2023-07-16T04:10:24;99547.97;;;17.27;100.00
75136;BME280;63707;52.212;9.540;2023-07-16T04:12:50;99543.31;;;17.33;100.00
75136;BME280;63707;52.212;9.540;2023-07-16T04:15:15;99551.03;;;17.30;100.00
75136;BME280;63707;52.212;9.540;2023-07-16T04:17:41;99549.66;;;17.33;100.00
75136;BME280;63707;52.212;9.540;2023-07-16T04:20:08;99555.47;;;17.37;100.00
75136;BME280;63707;52.212;9.540;2023-07-16T04:22:34;99558.22;;;17.37;100.00
75136;BME280;63707;52.212;9.540;2023-07-16T04:25:00;99565.13;;;17.39;100.00
75136;BME280;63707;52.212;9.540;2023-07-16T04:27:26;99576.50;;;17.48;100.00
75136;BME280;63707;52.212;9.540;2023-07-16T04:29:52;99580.06;;;17.48;100.00
75136;BME280;63707;52.212;9.540;2023-07-16T04:32:17;99575.50;;;17.59;100.00
75136;BME280;63707;52.212;9.540;2023-07-16T04:34:43;99586.56;;;17.64;100.00
75136;BME280;63707;52.212;9.540;2023-07-16T04:37:09;99591.81;;;17.66;100.00
75136;BME280;63707;52.212;9.540;2023-07-16T04:39:35;99597.16;;;17.77;100.00
75136;BME280;63707;52.212;9.540;2023-07-16T04:42:00;99599.09;;;17.82;100.00
75136;BME280;63707;52.212;9.540;2023-07-16T04:44:26;99597.22;;;17.87;100.00
75136;BME280;63707;52.212;9.540;2023-07-16T04:46:51;99608.84;;;17.94;100.00
75136;BME280;63707;52.212;9.540;2023-07-16T04:49:17;99611.09;;;17.98;100.00
75136;BME280;63707;52.212;9.540;2023-07-16T04:51:42;99614.09;;;17.96;100.00
75136;BME280;63707;52.212;9.540;2023-07-16T04:54:09;99607.81;;;18.01;100.00
75136;BME280;63707;52.212;9.540;2023-07-16T04:56:35;99603.16;;;18.06;100.00
75136;BME280;63707;52.212;9.540;2023-07-16T04:59:00;99607.88;;;18.16;100.00
75136;BME280;63707;52.212;9.540;2023-07-16T05:01:26;99610.09;;;18.14;100.00
75136;BME280;63707;52.212;9.540;2023-07-16T05:03:52;99605.44;;;18.24;100.00
75136;BME280;63707;52.212;9.540;2023-07-16T05:06:17;99602.13;;;18.22;100.00
75136;BME280;63707;52.212;9.540;2023-07-16T05:08:43;99619.22;;;18.19;100.00
75136;BME280;63707;52.212;9.540;2023-07-16T05:11:10;99600.78;;;18.30;100.00
75136;BME280;63707;52.212;9.540;2023-07-16T05:13:35;99613.78;;;18.35;100.00
75136;BME280;63707;52.212;9.540;2023-07-16T05:16:01;99619.00;;;18.36;100.00
75136;BME280;63707;52.212;9.540;2023-07-16T05:18:26;99620.94;;;18.36;100.00
75136;BME280;63707;52.212;9.540;2023-07-16T05:20:52;99620.91;;;18.25;100.00
75136;BME280;63707;52.212;9.540;2023-07-16T05:23:17;99630.84;;;18.32;100.00
75136;BME280;63707;52.212;9.540;2023-07-16T05:25:46;99629.50;;;18.39;100.00
75136;BME280;63707;52.212;9.540;2023-07-16T05:28:13;99644.09;;;18.30;100.00
75136;BME280;63707;52.212;9.540;2023-07-16T05:30:38;99648.00;;;18.39;100.00
75136;BME280;63707;52.212;9.540;2023-07-16T05:33:04;99649.44;;;18.46;100.00
75136;BME280;63707;52.212;9.540;2023-07-16T05:35:29;99645.91;;;18.56;100.00
75136;BME280;63707;52.212;9.540;2023-07-16T05:37:55;99654.25;;;18.66;100.00
75136;BME280;63707;52.212;9.540;2023-07-16T05:40:20;99659.72;;;18.61;100.00
75136;BME280;63707;52.212;9.540;2023-07-16T05:42:46;99659.97;;;18.54;100.00
75136;BME280;63707;52.212;9.540;2023-07-16T05:45:13;99666.25;;;18.45;100.00
75136;BME280;63707;52.212;9.540;2023-07-16T05:47:38;99666.47;;;18.38;100.00
75136;BME280;63707;52.212;9.540;2023-07-16T05:50:05;99669.41;;;18.64;100.00
75136;BME280;63707;52.212;9.540;2023-07-16T05:52:30;99674.72;;;18.75;100.00
75136;BME280;63707;52.212;9.540;2023-07-16T05:54:57;99678.94;;;18.93;100.00
75136;BME280;63707;52.212;9.540;2023-07-16T05:57:22;99666.00;;;19.04;100.00
75136;BME280;63707;52.212;9.540;2023-07-16T05:59:48;99665.19;;;19.18;100.00
75136;BME280;63707;52.212;9.540;2023-07-16T06:02:14;99663.28;;;19.29;100.00
75136;BME280;63707;52.212;9.540;2023-07-16T06:04:40;99668.34;;;19.53;100.00
75136;BME280;63707;52.212;9.540;2023-07-16T06:07:06;99679.91;;;19.39;100.00
75136;BME280;63707;52.212;9.540;2023-07-16T06:12:10;99679.88;;;19.34;100.00
75136;BME280;63707;52.212;9.540;2023-07-16T06:14:35;99679.66;;;19.51;100.00
75136;BME280;63707;52.212;9.540;2023-07-16T06:17:01;99669.09;;;19.38;100.00
75136;BME280;63707;52.212;9.540;2023-07-16T06:19:28;99681.50;;;19.25;100.00
75136;BME280;63707;52.212;9.540;2023-07-16T06:21:53;99678.94;;;18.93;100.00
75136;BME280;63707;52.212;9.540;2023-07-16T06:24:18;99677.50;;;18.85;100.00
75136;BME280;63707;52.212;9.540;2023-07-16T06:26:44;99680.25;;;18.80;100.00
75136;BME280;63707;52.212;9.540;2023-07-16T06:29:10;99687.69;;;18.80;100.00
75136;BME280;63707;52.212;9.540;2023-07-16T06:31:35;99686.16;;;19.04;100.00
75136;BME280;63707;52.212;9.540;2023-07-16T06:34:01;99691.09;;;18.97;100.00
75136;BME280;63707;52.212;9.540;2023-07-16T06:36:28;99696.34;;;18.99;100.00
75136;BME280;63707;52.212;9.540;2023-07-16T06:38:53;99697.22;;;19.09;100.00
75136;BME280;63707;52.212;9.540;2023-07-16T06:41:19;99692.38;;;19.52;100.00
75136;BME280;63707;52.212;9.540;2023-07-16T06:43:44;99697.66;;;19.84;100.00
75136;BME280;63707;52.212;9.540;2023-07-16T06:46:10;99686.31;;;20.36;100.00
75136;BME280;63707;52.212;9.540;2023-07-16T06:48:35;99691.56;;;20.38;100.00
75136;BME280;63707;52.212;9.540;2023-07-16T06:51:01;99687.69;;;20.49;100.00
75136;BME280;63707;52.212;9.540;2023-07-16T06:53:27;99695.72;;;20.20;100.00
75136;BME280;63707;52.212;9.540;2023-07-16T06:55:53;99697.41;;;20.06;100.00
75136;BME280;63707;52.212;9.540;2023-07-16T06:58:18;99706.81;;;20.00;100.00
75136;BME280;63707;52.212;9.540;2023-07-16T07:00:44;99700.13;;;20.31;100.00
75136;BME280;63707;52.212;9.540;2023-07-16T07:03:09;99711.50;;;20.15;100.00
75136;BME280;63707;52.212;9.540;2023-07-16T07:05:35;99718.16;;;20.44;100.00
75136;BME280;63707;52.212;9.540;2023-07-16T07:08:03;99732.25;;;20.12;100.00
75136;BME280;63707;52.212;9.540;2023-07-16T07:10:30;99728.34;;;19.83;100.00
75136;BME280;63707;52.212;9.540;2023-07-16T07:12:58;99737.50;;;19.93;100.00
75136;BME280;63707;52.212;9.540;2023-07-16T07:15:23;99720.56;;;20.81;100.00
75136;BME280;63707;52.212;9.540;2023-07-16T07:17:48;99722.88;;;21.18;100.00
75136;BME280;63707;52.212;9.540;2023-07-16T07:20:17;99714.56;;;21.73;100.00
75136;BME280;63707;52.212;9.540;2023-07-16T07:22:42;99717.00;;;21.84;100.00
75136;BME280;63707;52.212;9.540;2023-07-16T07:25:08;99721.00;;;22.07;100.00
75136;BME280;63707;52.212;9.540;2023-07-16T07:27:35;99727.50;;;21.48;100.00
75136;BME280;63707;52.212;9.540;2023-07-16T07:30:00;99721.50;;;21.21;100.00
75136;BME280;63707;52.212;9.540;2023-07-16T07:32:26;99737.84;;;21.32;100.00
75136;BME280;63707;52.212;9.540;2023-07-16T07:34:51;99727.66;;;21.08;100.00
75136;BME280;63707;52.212;9.540;2023-07-16T07:37:17;99738.09;;;21.36;100.00
75136;BME280;63707;52.212;9.540;2023-07-16T07:39:43;99731.69;;;21.41;100.00
75136;BME280;63707;52.212;9.540;2023-07-16T07:42:08;99737.16;;;21.56;100.00
75136;BME280;63707;52.212;9.540;2023-07-16T07:44:36;99741.25;;;22.03;100.00
75136;BME280;63707;52.212;9.540;2023-07-16T07:47:02;99734.03;;;22.07;100.00
75136;BME280;63707;52.212;9.540;2023-07-16T07:49:28;99737.47;;;21.93;100.00
75136;BME280;63707;52.212;9.540;2023-07-16T07:51:53;99735.47;;;22.62;100.00
75136;BME280;63707;52.212;9.540;2023-07-16T07:54:20;99745.59;;;22.19;100.00
75136;BME280;63707;52.212;9.540;2023-07-16T07:56:46;99741.72;;;21.76;100.00
75136;BME280;63707;52.212;9.540;2023-07-16T07:59:11;99743.53;;;21.95;100.00
75136;BME280;63707;52.212;9.540;2023-07-16T08:01:38;99746.09;;;21.87;100.00
75136;BME280;63707;52.212;9.540;2023-07-16T08:04:04;99747.47;;;21.45;100.00
75136;BME280;63707;52.212;9.540;2023-07-16T08:06:29;99757.97;;;21.48;100.00
75136;BME280;63707;52.212;9.540;2023-07-16T08:08:55;99758.63;;;21.35;100.00
75136;BME280;63707;52.212;9.540;2023-07-16T08:11:20;99764.00;;;20.81;100.00
75136;BME280;63707;52.212;9.540;2023-07-16T08:13:46;99762.28;;;22.14;100.00
75136;BME280;63707;52.212;9.540;2023-07-16T08:16:11;99757.75;;;22.23;100.00
75136;BME280;63707;52.212;9.540;2023-07-16T08:18:38;99762.91;;;22.00;100.00
75136;BME280;63707;52.212;9.540;2023-07-16T08:21:03;99755.56;;;23.07;100.00
75136;BME280;63707;52.212;9.540;2023-07-16T08:23:29;99760.16;;;23.40;100.00
75136;BME280;63707;52.212;9.540;2023-07-16T08:25:54;99769.72;;;23.53;100.00
75136;BME280;63707;52.212;9.540;2023-07-16T08:28:20;99766.13;;;22.52;100.00
75136;BME280;63707;52.212;9.540;2023-07-16T08:30:46;99763.53;;;22.32;100.00
75136;BME280;63707;52.212;9.540;2023-07-16T08:33:12;99761.38;;;23.10;100.00
75136;BME280;63707;52.212;9.540;2023-07-16T08:35:39;99758.25;;;22.93;100.00
75136;BME280;63707;52.212;9.540;2023-07-16T08:38:04;99755.81;;;23.10;100.00
75136;BME280;63707;52.212;9.540;2023-07-16T08:40:33;99753.09;;;23.05;100.00
75136;BME280;63707;52.212;9.540;2023-07-16T08:42:59;99753.19;;;22.71;100.00
75136;BME280;63707;52.212;9.540;2023-07-16T08:45:25;99754.88;;;22.67;100.00
75136;BME280;63707;52.212;9.540;2023-07-16T08:47:54;99740.88;;;22.82;100.00
75136;BME280;63707;52.212;9.540;2023-07-16T08:50:21;99755.22;;;22.32;100.00
75136;BME280;63707;52.212;9.540;2023-07-16T08:52:48;99745.78;;;23.95;100.00
75136;BME280;63707;52.212;9.540;2023-07-16T08:55:13;99745.97;;;23.66;100.00
75136;BME280;63707;52.212;9.540;2023-07-16T08:57:39;99740.69;;;24.67;100.00
75136;BME280;63707;52.212;9.540;2023-07-16T09:00:07;99749.66;;;25.10;100.00
75136;BME280;63707;52.212;9.540;2023-07-16T09:02:32;99738.59;;;24.26;100.00
75136;BME280;63707;52.212;9.540;2023-07-16T09:04:58;99744.97;;;25.05;100.00
75136;BME280;63707;52.212;9.540;2023-07-16T09:07:24;99732.56;;;24.84;100.00
75136;BME280;63707;52.212;9.540;2023-07-16T09:09:58;99741.44;;;25.68;100.00
75136;BME280;63707;52.212;9.540;2023-07-16T09:12:23;99741.06;;;24.46;100.00
75136;BME280;63707;52.212;9.540;2023-07-16T09:14:49;99737.56;;;24.55;100.00
75136;BME280;63707;52.212;9.540;2023-07-16T09:17:19;99752.19;;;23.34;100.00
75136;BME280;63707;52.212;9.540;2023-07-16T09:19:45;99749.34;;;23.81;100.00
75136;BME280;63707;52.212;9.540;2023-07-16T09:22:11;99746.69;;;24.74;100.00
75136;BME280;63707;52.212;9.540;2023-07-16T09:24:36;99750.88;;;25.31;100.00
75136;BME280;63707;52.212;9.540;2023-07-16T09:27:04;99752.34;;;26.15;100.00
75136;BME280;63707;52.212;9.540;2023-07-16T09:29:29;99750.38;;;26.15;100.00
75136;BME280;63707;52.212;9.540;2023-07-16T09:31:56;99756.13;;;24.59;100.00
75136;BME280;63707;52.212;9.540;2023-07-16T09:34:22;99768.50;;;24.02;100.00
75136;BME280;63707;52.212;9.540;2023-07-16T09:36:47;99766.63;;;23.78;100.00
75136;BME280;63707;52.212;9.540;2023-07-16T09:39:15;99769.94;;;23.14;100.00
75136;BME280;63707;52.212;9.540;2023-07-16T09:41:41;99779.63;;;24.02;100.00
75136;BME280;63707;52.212;9.540;2023-07-16T09:44:09;99782.84;;;23.29;100.00
75136;BME280;63707;52.212;9.540;2023-07-16T09:46:35;99782.53;;;22.48;100.00
75136;BME280;63707;52.212;9.540;2023-07-16T09:49:01;99784.41;;;22.58;100.00
75136;BME280;63707;52.212;9.540;2023-07-16T09:51:27;99769.31;;;23.65;100.00
75136;BME280;63707;52.212;9.540;2023-07-16T09:53:55;99786.09;;;22.88;100.00
75136;BME280;63707;52.212;9.540;2023-07-16T09:56:23;99792.31;;;22.70;100.00
75136;BME280;63707;52.212;9.540;2023-07-16T09:58:55;99788.16;;;23.25;100.00
75136;BME280;63707;52.212;9.540;2023-07-16T10:01:22;99785.28;;;24.15;100.00
75136;BME280;63707;52.212;9.540;2023-07-16T10:03:48;99778.84;;;24.99;100.00
75136;BME280;63707;52.212;9.540;2023-07-16T10:06:15;99785.59;;;25.12;100.00
75136;BME280;63707;52.212;9.540;2023-07-16T10:08:40;99786.94;;;24.68;100.00
75136;BME280;63707;52.212;9.540;2023-07-16T10:11:15;99786.19;;;25.36;100.00
75136;BME280;63707;52.212;9.540;2023-07-16T10:13:42;99775.06;;;26.66;100.00
75136;BME280;63707;52.212;9.540;2023-07-16T10:16:07;99782.25;;;26.00;100.00
75136;BME280;63707;52.212;9.540;2023-07-16T10:18:37;99780.81;;;25.26;100.00
75136;BME280;63707;52.212;9.540;2023-07-16T10:21:04;99795.94;;;24.08;100.00
75136;BME280;63707;52.212;9.540;2023-07-16T10:23:39;99808.84;;;23.14;100.00
75136;BME280;63707;52.212;9.540;2023-07-16T10:26:06;99794.44;;;23.36;100.00
75136;BME280;63707;52.212;9.540;2023-07-16T10:28:31;99798.44;;;23.01;100.00
75136;BME280;63707;52.212;9.540;2023-07-16T10:30:57;99802.44;;;23.18;100.00
75136;BME280;63707;52.212;9.540;2023-07-16T10:33:23;99799.34;;;22.96;100.00
75136;BME280;63707;52.212;9.540;2023-07-16T10:35:50;99789.69;;;23.12;100.00
75136;BME280;63707;52.212;9.540;2023-07-16T10:38:15;99788.50;;;24.88;100.00
75136;BME280;63707;52.212;9.540;2023-07-16T10:40:41;99787.09;;;25.59;100.00
75136;BME280;63707;52.212;9.540;2023-07-16T10:43:07;99796.44;;;24.80;100.00
75136;BME280;63707;52.212;9.540;2023-07-16T10:45:33;99791.13;;;25.53;100.00
75136;BME280;63707;52.212;9.540;2023-07-16T10:47:59;99795.94;;;24.78;100.00
75136;BME280;63707;52.212;9.540;2023-07-16T10:50:24;99808.81;;;24.74;100.00
75136;BME280;63707;52.212;9.540;2023-07-16T10:52:52;99793.56;;;24.86;100.00
75136;BME280;63707;52.212;9.540;2023-07-16T10:55:18;99788.53;;;26.20;100.00
75136;BME280;63707;52.212;9.540;2023-07-16T10:57:44;99796.22;;;26.00;100.00
75136;BME280;63707;52.212;9.540;2023-07-16T11:00:11;99796.28;;;26.67;100.00
75136;BME280;63707;52.212;9.540;2023-07-16T11:02:39;99787.72;;;27.26;100.00
75136;BME280;63707;52.212;9.540;2023-07-16T11:05:09;99784.97;;;27.43;100.00
75136;BME280;63707;52.212;9.540;2023-07-16T11:07:34;99806.31;;;26.46;100.00
75136;BME280;63707;52.212;9.540;2023-07-16T11:10:01;99795.06;;;26.82;100.00
75136;BME280;63707;52.212;9.540;2023-07-16T11:12:28;99793.63;;;25.54;100.00
75136;BME280;63707;52.212;9.540;2023-07-16T11:14:55;99805.22;;;25.97;100.00
75136;BME280;63707;52.212;9.540;2023-07-16T11:17:22;99789.31;;;26.56;100.00
75136;BME280;63707;52.212;9.540;2023-07-16T11:19:50;99795.44;;;27.20;100.00
75136;BME280;63707;52.212;9.540;2023-07-16T11:22:16;99800.03;;;27.16;100.00
75136;BME280;63707;52.212;9.540;2023-07-16T11:24:43;99801.41;;;27.36;100.00
75136;BME280;63707;52.212;9.540;2023-07-16T11:27:14;99800.72;;;26.24;100.00
75136;BME280;63707;52.212;9.540;2023-07-16T11:29:45;99787.53;;;27.22;100.00
75136;BME280;63707;52.212;9.540;2023-07-16T11:32:10;99799.09;;;27.29;100.00
75136;BME280;63707;52.212;9.540;2023-07-16T11:34:36;99802.19;;;26.44;100.00
75136;BME280;63707;52.212;9.540;2023-07-16T11:37:08;99793.53;;;26.99;100.00
75136;BME280;63707;52.212;9.540;2023-07-16T11:39:34;99793.63;;;26.93;100.00
75136;BME280;63707;52.212;9.540;2023-07-16T11:42:02;99794.28;;;27.61;100.00
75136;BME280;63707;52.212;9.540;2023-07-16T11:44:33;99791.06;;;28.02;100.00
75136;BME280;63707;52.212;9.540;2023-07-16T11:46:59;99796.88;;;27.49;100.00
75136;BME280;63707;52.212;9.540;2023-07-16T11:49:25;99795.47;;;27.77;100.00
75136;BME280;63707;52.212;9.540;2023-07-16T11:51:50;99803.69;;;27.82;100.00
75136;BME280;63707;52.212;9.540;2023-07-16T11:54:16;99802.34;;;26.61;100.00
75136;BME280;63707;52.212;9.540;2023-07-16T11:56:41;99804.19;;;26.29;100.00
75136;BME280;63707;52.212;9.540;2023-07-16T11:59:07;99809.28;;;26.27;100.00
75136;BME280;63707;52.212;9.540;2023-07-16T12:01:33;99805.53;;;27.39;100.00
75136;BME280;63707;52.212;9.540;2023-07-16T12:03:59;99801.59;;;27.40;100.00
75136;BME280;63707;52.212;9.540;2023-07-16T12:06:24;99815.44;;;28.02;100.00
75136;BME280;63707;52.212;9.540;2023-07-16T12:08:50;99811.84;;;26.38;100.00
75136;BME280;63707;52.212;9.540;2023-07-16T12:11:15;99808.38;;;26.18;100.00
75136;BME280;63707;52.212;9.540;2023-07-16T12:13:41;99814.91;;;25.36;100.00
75136;BME280;63707;52.212;9.540;2023-07-16T12:16:07;99824.69;;;26.02;100.00
75136;BME280;63707;52.212;9.540;2023-07-16T12:18:34;99823.06;;;24.73;100.00
75136;BME280;63707;52.212;9.540;2023-07-16T12:20:59;99813.59;;;25.97;100.00
75136;BME280;63707;52.212;9.540;2023-07-16T12:23:24;99832.56;;;24.86;100.00
75136;BME280;63707;52.212;9.540;2023-07-16T12:25:50;99831.53;;;24.49;100.00
75136;BME280;63707;52.212;9.540;2023-07-16T12:28:16;99814.66;;;26.60;100.00
75136;BME280;63707;52.212;9.540;2023-07-16T12:30:41;99814.56;;;26.74;100.00
75136;BME280;63707;52.212;9.540;2023-07-16T12:33:07;99822.03;;;25.56;100.00
75136;BME280;63707;52.212;9.540;2023-07-16T12:35:33;99813.00;;;26.90;100.00
75136;BME280;63707;52.212;9.540;2023-07-16T12:37:59;99833.72;;;27.99;100.00
75136;BME280;63707;52.212;9.540;2023-07-16T12:40:25;99823.19;;;27.96;100.00
75136;BME280;63707;52.212;9.540;2023-07-16T12:42:50;99826.81;;;27.48;100.00
75136;BME280;63707;52.212;9.540;2023-07-16T12:45:16;99822.63;;;26.75;100.00
75136;BME280;63707;52.212;9.540;2023-07-16T12:47:41;99823.13;;;26.32;100.00